sensor_id;sensor_type;location;lat;lon;timestamp;pressure;altitude;pressure_sealevel;temperature;humidity
57056;BME280;42945;51.718;5.324;2022-07-29T00:00:20;101499.31;;;15.71;68.22
57056;BME280;42945;51.718;5.324;2022-07-29T00:02:45;101487.03;;;15.69;68.39
57056;BME280;42945;51.718;5.324;2022-07-29T00:05:11;101456.53;;;15.59;68.59
57056;BME280;42945;51.718;5.324;2022-07-29T00:07:38;101458.88;;;15.63;68.42
57056;BME280;42945;51.718;5.324;2022-07-29T00:10:04;101390.81;;;15.03;68.70
57056;BME280;42945;51.718;5.324;2022-07-29T00:12:29;101456.41;;;15.60;69.88
57056;BME280;42945;51.718;5.324;2022-07-29T00:14:55;101815.44;;;15.62;68.62
57056;BME280;42945;51.718;5.324;2022-07-29T00:17:22;101479.28;;;15.64;69.13
57056;BME280;42945;51.718;5.324;2022-07-29T00:19:47;101436.00;;;15.59;69.63
57056;BME280;42945;51.718;5.324;2022-07-29T00:22:12;101329.16;;;14.93;68.38
57056;BME280;42945;51.718;5.324;2022-07-29T00:24:38;101415.13;;;15.39;70.21
57056;BME280;42945;51.718;5.324;2022-07-29T00:27:03;101625.66;;;16.53;70.61
57056;BME280;42945;51.718;5.324;2022-07-29T00:29:28;101381.13;;;15.41;69.84
57056;BME280;42945;51.718;5.324;2022-07-29T00:31:54;101338.28;;;14.76;70.01
57056;BME280;42945;51.718;5.324;2022-07-29T00:34:19;101397.50;;;15.36;69.99
57056;BME280;42945;51.718;5.324;2022-07-29T00:37:03;101446.25;;;15.52;69.44
57056;BME280;42945;51.718;5.324;2022-07-29T00:39:29;101443.06;;;15.47;71.57
57056;BME280;42945;51.718;5.324;2022-07-29T00:41:54;101327.09;;;14.71;93.13
57056;BME280;42945;51.718;5.324;2022-07-29T00:44:19;101446.16;;;15.41;70.66
57056;BME280;42945;51.718;5.324;2022-07-29T00:46:45;101748.00;;;15.30;70.22
57056;BME280;42945;51.718;5.324;2022-07-29T00:49:10;101332.84;;;14.78;70.43
57056;BME280;42945;51.718;5.324;2022-07-29T00:51:37;101332.81;;;14.65;69.72
57056;BME280;42945;51.718;5.324;2022-07-29T00:54:05;101462.06;;;15.30;69.93
57056;BME280;42945;51.718;5.324;2022-07-29T00:56:31;101408.47;;;15.19;69.30
57056;BME280;42945;51.718;5.324;2022-07-29T00:58:57;101405.38;;;15.25;70.68
57056;BME280;42945;51.718;5.324;2022-07-29T01:01:23;101476.44;;;15.27;70.35
57056;BME280;42945;51.718;5.324;2022-07-29T01:03:48;101398.34;;;15.24;71.20
57056;BME280;42945;51.718;5.324;2022-07-29T01:06:15;101397.22;;;15.13;72.13
57056;BME280;42945;51.718;5.324;2022-07-29T01:08:42;101414.38;;;15.24;72.20
57056;BME280;42945;51.718;5.324;2022-07-29T01:11:07;101438.53;;;15.35;73.21
57056;BME280;42945;51.718;5.324;2022-07-29T01:13:36;101336.69;;;14.47;71.72
57056;BME280;42945;51.718;5.324;2022-07-29T01:16:08;101451.31;;;15.17;72.68
57056;BME280;42945;51.718;5.324;2022-07-29T01:18:40;101362.19;;;14.65;72.00
57056;BME280;42945;51.718;5.324;2022-07-29T01:24:11;101285.56;;;14.53;72.74
57056;BME280;42945;51.718;5.324;2022-07-29T01:26:52;101427.09;;;15.33;72.86
57056;BME280;42945;51.718;5.324;2022-07-29T01:29:26;101330.75;;;14.56;72.47
57056;BME280;42945;51.718;5.324;2022-07-29T01:32:13;101453.16;;;15.16;72.50
57056;BME280;42945;51.718;5.324;2022-07-29T01:37:26;101333.38;;;14.43;73.28
57056;BME280;42945;51.718;5.324;2022-07-29T01:39:55;101429.19;;;15.15;73.55
57056;BME280;42945;51.718;5.324;2022-07-29T01:42:36;101338.63;;;14.45;95.42
57056;BME280;42945;51.718;5.324;2022-07-29T01:48:06;101365.69;;;15.06;73.99
57056;BME280;42945;51.718;5.324;2022-07-29T01:50:47;101386.69;;;14.85;74.05
57056;BME280;42945;51.718;5.324;2022-07-29T01:53:21;101412.03;;;14.92;74.00
57056;BME280;42945;51.718;5.324;2022-07-29T01:55:50;101431.81;;;15.02;74.54
57056;BME280;42945;51.718;5.324;2022-07-29T01:58:17;101275.78;;;14.26;74.92
57056;BME280;42945;51.718;5.324;2022-07-29T02:00:44;101284.75;;;14.25;74.94
57056;BME280;42945;51.718;5.324;2022-07-29T02:03:12;101361.31;;;14.37;75.98
57056;BME280;42945;51.718;5.324;2022-07-29T02:05:41;101404.09;;;14.77;74.45
57056;BME280;42945;51.718;5.324;2022-07-29T02:08:08;101375.34;;;14.68;75.58
57056;BME280;42945;51.718;5.324;2022-07-29T02:10:35;101430.06;;;14.75;74.69
57056;BME280;42945;51.718;5.324;2022-07-29T02:13:03;101387.84;;;14.68;75.55
57056;BME280;42945;51.718;5.324;2022-07-29T02:15:32;101391.97;;;14.59;76.14
57056;BME280;42945;51.718;5.324;2022-07-29T02:18:02;101408.72;;;14.61;76.36
57056;BME280;42945;51.718;5.324;2022-07-29T02:20:30;101379.28;;;14.63;76.05
57056;BME280;42945;51.718;5.324;2022-07-29T02:22:57;101377.44;;;14.63;75.66
57056;BME280;42945;51.718;5.324;2022-07-29T02:25:24;101497.59;;;15.18;76.40
57056;BME280;42945;51.718;5.324;2022-07-29T02:27:50;101334.38;;;14.55;76.41
57056;BME280;42945;51.718;5.324;2022-07-29T02:30:17;101359.75;;;14.48;77.64
57056;BME280;42945;51.718;5.324;2022-07-29T02:32:44;101284.84;;;13.82;76.93
57056;BME280;42945;51.718;5.324;2022-07-29T02:35:12;101385.59;;;14.47;76.64
57056;BME280;42945;51.718;5.324;2022-07-29T02:37:39;101391.97;;;14.45;76.80
57056;BME280;42945;51.718;5.324;2022-07-29T02:40:08;101336.88;;;14.44;76.05
57056;BME280;42945;51.718;5.324;2022-07-29T02:42:36;101392.16;;;14.42;76.13
57056;BME280;42945;51.718;5.324;2022-07-29T02:45:03;101499.91;;;15.09;76.87
57056;BME280;42945;51.718;5.324;2022-07-29T02:47:47;101252.41;;;13.75;76.94
57056;BME280;42945;51.718;5.324;2022-07-29T02:50:21;101371.28;;;14.48;76.69
57056;BME280;42945;51.718;5.324;2022-07-29T02:52:53;101378.72;;;14.43;76.42
57056;BME280;42945;51.718;5.324;2022-07-29T02:55:47;101381.72;;;14.38;77.36
57056;BME280;42945;51.718;5.324;2022-07-29T02:58:31;101371.88;;;14.39;76.82
57056;BME280;42945;51.718;5.324;2022-07-29T03:01:19;101281.69;;;14.44;76.84
57056;BME280;42945;51.718;5.324;2022-07-29T03:03:46;101218.06;;;13.71;77.30
57056;BME280;42945;51.718;5.324;2022-07-29T03:06:13;101356.72;;;14.40;77.54
57056;BME280;42945;51.718;5.324;2022-07-29T03:08:40;101369.22;;;14.39;77.61
57056;BME280;42945;51.718;5.324;2022-07-29T03:11:08;101361.72;;;14.31;77.64
57056;BME280;42945;51.718;5.324;2022-07-29T03:13:34;101355.88;;;14.39;77.78
57056;BME280;42945;51.718;5.324;2022-07-29T03:16:00;101355.41;;;14.32;77.41
57056;BME280;42945;51.718;5.324;2022-07-29T03:18:26;101344.09;;;14.29;77.89
57056;BME280;42945;51.718;5.324;2022-07-29T03:20:52;101363.78;;;14.41;77.75
57056;BME280;42945;51.718;5.324;2022-07-29T03:23:22;101358.81;;;14.34;77.87
57056;BME280;42945;51.718;5.324;2022-07-29T03:25:49;101353.50;;;14.34;79.00
57056;BME280;42945;51.718;5.324;2022-07-29T03:28:14;101382.97;;;14.33;78.08
57056;BME280;42945;51.718;5.324;2022-07-29T03:30:40;101247.50;;;13.55;79.07
57056;BME280;42945;51.718;5.324;2022-07-29T03:33:05;101316.84;;;14.24;79.07
57056;BME280;42945;51.718;5.324;2022-07-29T03:35:31;101269.78;;;13.54;78.27
57056;BME280;42945;51.718;5.324;2022-07-29T03:37:57;101345.28;;;14.10;79.08
57056;BME280;42945;51.718;5.324;2022-07-29T03:40:26;101389.06;;;14.21;79.73
57056;BME280;42945;51.718;5.324;2022-07-29T03:42:53;101381.41;;;14.02;80.46
57056;BME280;42945;51.718;5.324;2022-07-29T03:45:21;101394.34;;;14.08;79.63
57056;BME280;42945;51.718;5.324;2022-07-29T03:47:50;101385.09;;;14.13;80.44
57056;BME280;42945;51.718;5.324;2022-07-29T03:50:17;101405.78;;;13.95;80.05
57056;BME280;42945;51.718;5.324;2022-07-29T03:52:45;101426.63;;;14.03;79.55
57056;BME280;42945;51.718;5.324;2022-07-29T03:55:10;101382.53;;;13.97;80.59
57056;BME280;42945;51.718;5.324;2022-07-29T03:57:36;101366.00;;;13.78;81.16
57056;BME280;42945;51.718;5.324;2022-07-29T04:00:03;101101.28;;;12.51;80.36
57056;BME280;42945;51.718;5.324;2022-07-29T04:02:31;101262.34;;;13.16;79.90
57056;BME280;42945;51.718;5.324;2022-07-29T04:04:57;101378.97;;;13.84;80.65
57056;BME280;42945;51.718;5.324;2022-07-29T04:07:23;101398.56;;;13.83;81.29
57056;BME280;42945;51.718;5.324;2022-07-29T04:09:48;101392.66;;;13.78;82.33
57056;BME280;42945;51.718;5.324;2022-07-29T04:12:13;101125.13;;;12.38;81.08
57056;BME280;42945;51.718;5.324;2022-07-29T04:14:38;101405.22;;;13.76;82.46
57056;BME280;42945;51.718;5.324;2022-07-29T04:17:05;101358.28;;;13.73;83.01
57056;BME280;42945;51.718;5.324;2022-07-29T04:19:31;101319.31;;;13.13;82.47
57056;BME280;42945;51.718;5.324;2022-07-29T04:21:57;101354.88;;;13.71;82.30
57056;BME280;42945;51.718;5.324;2022-07-29T04:24:23;101322.88;;;13.71;82.72
57056;BME280;42945;51.718;5.324;2022-07-29T04:26:48;101234.09;;;12.99;82.58
57056;BME280;42945;51.718;5.324;2022-07-29T04:29:14;101403.41;;;13.62;82.27
57056;BME280;42945;51.718;5.324;2022-07-29T04:31:40;101396.53;;;13.72;82.39
57056;BME280;42945;51.718;5.324;2022-07-29T04:34:05;101424.34;;;13.68;82.44
57056;BME280;42945;51.718;5.324;2022-07-29T04:36:31;101378.06;;;13.55;82.56
57056;BME280;42945;51.718;5.324;2022-07-29T04:38:56;101375.22;;;13.58;82.43
57056;BME280;42945;51.718;5.324;2022-07-29T04:41:23;101297.41;;;12.79;82.18
57056;BME280;42945;51.718;5.324;2022-07-29T04:43:49;101379.22;;;13.51;82.42
57056;BME280;42945;51.718;5.324;2022-07-29T04:46:14;101324.50;;;13.45;82.59
57056;BME280;42945;51.718;5.324;2022-07-29T04:48:39;101255.97;;;12.90;81.89
57056;BME280;42945;51.718;5.324;2022-07-29T04:51:05;101389.41;;;13.44;82.26
57056;BME280;42945;51.718;5.324;2022-07-29T04:53:30;101255.13;;;12.89;81.31
57056;BME280;42945;51.718;5.324;2022-07-29T04:55:56;101321.00;;;13.59;82.88
57056;BME280;42945;51.718;5.324;2022-07-29T04:58:21;101391.91;;;13.62;82.11
57056;BME280;42945;51.718;5.324;2022-07-29T05:00:48;101399.69;;;13.65;82.03
57056;BME280;42945;51.718;5.324;2022-07-29T05:03:16;101399.34;;;13.71;82.35
57056;BME280;42945;51.718;5.324;2022-07-29T05:05:42;101399.97;;;13.74;81.77
57056;BME280;42945;51.718;5.324;2022-07-29T05:08:07;101428.16;;;13.93;81.30
57056;BME280;42945;51.718;5.324;2022-07-29T05:10:33;101244.84;;;13.12;81.97
57056;BME280;42945;51.718;5.324;2022-07-29T05:13:03;101362.56;;;13.90;81.44
57056;BME280;42945;51.718;5.324;2022-07-29T05:15:28;101398.31;;;14.15;80.54
57056;BME280;42945;51.718;5.324;2022-07-29T05:17:54;101391.00;;;14.18;81.40
57056;BME280;42945;51.718;5.324;2022-07-29T05:20:19;101422.91;;;14.20;80.22
57056;BME280;42945;51.718;5.324;2022-07-29T05:22:51;101288.25;;;13.43;80.89
57056;BME280;42945;51.718;5.324;2022-07-29T05:25:16;101336.34;;;14.38;80.81
57056;BME280;42945;51.718;5.324;2022-07-29T05:27:41;100713.97;;;14.24;80.33
57056;BME280;42945;51.718;5.324;2022-07-29T05:30:07;101289.69;;;13.48;80.77
57056;BME280;42945;51.718;5.324;2022-07-29T05:32:32;101336.69;;;13.64;79.57
57056;BME280;42945;51.718;5.324;2022-07-29T05:34:58;101440.16;;;14.98;78.45
57056;BME280;42945;51.718;5.324;2022-07-29T05:37:23;101299.38;;;13.64;79.24
57056;BME280;42945;51.718;5.324;2022-07-29T05:39:48;101324.66;;;13.85;78.71
57056;BME280;42945;51.718;5.324;2022-07-29T05:42:14;101245.75;;;13.68;79.70
57056;BME280;42945;51.718;5.324;2022-07-29T05:44:40;101372.75;;;14.40;79.28
57056;BME280;42945;51.718;5.324;2022-07-29T05:47:05;101395.81;;;14.41;79.07
57056;BME280;42945;51.718;5.324;2022-07-29T05:49:31;101408.00;;;14.45;79.55
57056;BME280;42945;51.718;5.324;2022-07-29T05:51:57;101436.38;;;14.46;78.49
57056;BME280;42945;51.718;5.324;2022-07-29T05:54:23;101290.50;;;13.77;78.98
57056;BME280;42945;51.718;5.324;2022-07-29T05:56:48;101450.81;;;15.25;79.16
57056;BME280;42945;51.718;5.324;2022-07-29T05:59:14;101296.00;;;13.89;78.48
57056;BME280;42945;51.718;5.324;2022-07-29T06:01:39;101397.56;;;14.54;78.67
57056;BME280;42945;51.718;5.324;2022-07-29T06:04:05;101392.81;;;14.60;78.20
57056;BME280;42945;51.718;5.324;2022-07-29T06:06:32;101421.41;;;14.85;79.77
57056;BME280;42945;51.718;5.324;2022-07-29T06:08:57;101430.81;;;14.77;78.48
57056;BME280;42945;51.718;5.324;2022-07-29T06:11:22;101415.22;;;14.84;78.76
57056;BME280;42945;51.718;5.324;2022-07-29T06:13:47;101438.50;;;14.82;78.20
57056;BME280;42945;51.718;5.324;2022-07-29T06:16:13;101441.50;;;14.90;79.25
57056;BME280;42945;51.718;5.324;2022-07-29T06:18:38;101310.03;;;14.05;100.00
57056;BME280;42945;51.718;5.324;2022-07-29T06:24:07;101429.06;;;15.04;77.94
57056;BME280;42945;51.718;5.324;2022-07-29T06:26:32;101437.53;;;15.23;78.72
57056;BME280;42945;51.718;5.324;2022-07-29T06:28:58;101562.38;;;16.01;78.43
57056;BME280;42945;51.718;5.324;2022-07-29T06:31:23;101321.63;;;14.60;77.02
57056;BME280;42945;51.718;5.324;2022-07-29T06:33:49;101434.97;;;15.09;77.71
57056;BME280;42945;51.718;5.324;2022-07-29T06:36:15;101408.28;;;15.34;77.37
57056;BME280;42945;51.718;5.324;2022-07-29T06:38:40;101278.03;;;14.60;77.02
57056;BME280;42945;51.718;5.324;2022-07-29T06:41:08;101469.38;;;15.13;77.81
57056;BME280;42945;51.718;5.324;2022-07-29T06:43:39;101399.31;;;15.35;77.06
57056;BME280;42945;51.718;5.324;2022-07-29T06:46:08;101453.19;;;15.42;76.19
57056;BME280;42945;51.718;5.324;2022-07-29T06:48:35;101398.03;;;15.54;76.38
57056;BME280;42945;51.718;5.324;2022-07-29T06:51:04;101396.50;;;15.37;75.47
57056;BME280;42945;51.718;5.324;2022-07-29T06:53:30;101447.97;;;15.66;75.12
57056;BME280;42945;51.718;5.324;2022-07-29T06:55:56;101429.06;;;15.82;74.90
57056;BME280;42945;51.718;5.324;2022-07-29T06:58:21;101297.00;;;15.08;74.64
57056;BME280;42945;51.718;5.324;2022-07-29T07:00:47;101455.16;;;15.91;74.52
57056;BME280;42945;51.718;5.324;2022-07-29T07:03:13;101459.88;;;15.75;74.24
57056;BME280;42945;51.718;5.324;2022-07-29T07:05:39;101402.00;;;15.61;74.24
57056;BME280;42945;51.718;5.324;2022-07-29T07:08:04;101467.03;;;16.00;74.26
57056;BME280;42945;51.718;5.324;2022-07-29T07:10:30;101341.34;;;15.62;73.24
57056;BME280;42945;51.718;5.324;2022-07-29T07:12:56;101456.09;;;16.16;73.58
57056;BME280;42945;51.718;5.324;2022-07-29T07:15:21;101441.09;;;16.26;73.23
57056;BME280;42945;51.718;5.324;2022-07-29T07:17:48;101421.97;;;16.44;72.56
57056;BME280;42945;51.718;5.324;2022-07-29T07:20:14;101466.78;;;16.66;71.73
57056;BME280;42945;51.718;5.324;2022-07-29T07:22:39;101380.88;;;16.08;72.06
57056;BME280;42945;51.718;5.324;2022-07-29T07:25:05;101344.00;;;15.87;70.65
57056;BME280;42945;51.718;5.324;2022-07-29T07:27:31;101460.03;;;16.73;71.44
57056;BME280;42945;51.718;5.324;2022-07-29T07:29:56;101472.13;;;17.03;69.71
57056;BME280;42945;51.718;5.324;2022-07-29T07:32:22;101417.34;;;16.22;71.29
57056;BME280;42945;51.718;5.324;2022-07-29T07:34:47;101389.47;;;16.37;71.83
57056;BME280;42945;51.718;5.324;2022-07-29T07:37:12;101548.84;;;17.52;69.92
57056;BME280;42945;51.718;5.324;2022-07-29T07:39:39;101441.84;;;16.65;71.19
57056;BME280;42945;51.718;5.324;2022-07-29T07:42:05;130354.56;;;191.27;76.02
57056;BME280;42945;51.718;5.324;2022-07-29T07:44:30;101409.97;;;17.33;70.39
57056;BME280;42945;51.718;5.324;2022-07-29T07:46:55;101435.59;;;17.48;69.10
57056;BME280;42945;51.718;5.324;2022-07-29T07:49:20;101454.97;;;17.05;70.38
57056;BME280;42945;51.718;5.324;2022-07-29T07:51:47;101356.59;;;15.98;71.27
57056;BME280;42945;51.718;5.324;2022-07-29T07:54:12;101394.22;;;16.82;70.27
57056;BME280;42945;51.718;5.324;2022-07-29T07:56:37;101490.72;;;16.93;69.46
57056;BME280;42945;51.718;5.324;2022-07-29T07:59:03;101395.63;;;17.79;68.63
57056;BME280;42945;51.718;5.324;2022-07-29T08:01:28;101442.53;;;17.98;67.34
57056;BME280;42945;51.718;5.324;2022-07-29T08:03:53;101453.38;;;18.19;37.47
57056;BME280;42945;51.718;5.324;2022-07-29T08:06:19;101459.94;;;17.34;67.40
57056;BME280;42945;51.718;5.324;2022-07-29T08:08:44;101419.94;;;17.78;67.84
57056;BME280;42945;51.718;5.324;2022-07-29T08:11:09;101449.25;;;18.81;64.82
57056;BME280;42945;51.718;5.324;2022-07-29T08:13:35;101397.97;;;19.47;62.83
57056;BME280;42945;51.718;5.324;2022-07-29T08:16:00;101453.28;;;19.82;61.51
57056;BME280;42945;51.718;5.324;2022-07-29T08:18:30;101453.88;;;19.64;61.84
57056;BME280;42945;51.718;5.324;2022-07-29T08:20:56;101433.53;;;19.51;61.64
57056;BME280;42945;51.718;5.324;2022-07-29T08:23:22;101444.84;;;20.37;60.73
57056;BME280;42945;51.718;5.324;2022-07-29T08:25:48;101428.16;;;20.12;60.56
57056;BME280;42945;51.718;5.324;2022-07-29T08:28:14;101415.81;;;20.00;59.05
57056;BME280;42945;51.718;5.324;2022-07-29T08:30:39;101424.50;;;20.13;60.72
57056;BME280;42945;51.718;5.324;2022-07-29T08:33:05;101442.44;;;19.30;62.23
57056;BME280;42945;51.718;5.324;2022-07-29T08:35:30;101405.78;;;19.29;61.87
57056;BME280;42945;51.718;5.324;2022-07-29T08:37:55;101455.75;;;19.11;63.15
57056;BME280;42945;51.718;5.324;2022-07-29T08:40:22;101445.25;;;19.28;62.84
57056;BME280;42945;51.718;5.324;2022-07-29T08:42:50;101443.34;;;18.98;62.74
57056;BME280;42945;51.718;5.324;2022-07-29T08:45:16;101459.97;;;19.45;62.04
57056;BME280;42945;51.718;5.324;2022-07-29T08:47:44;101473.88;;;18.97;63.13
57056;BME280;42945;51.718;5.324;2022-07-29T08:50:10;101452.06;;;19.54;62.08
57056;BME280;42945;51.718;5.324;2022-07-29T08:52:38;101469.72;;;19.67;59.38
57056;BME280;42945;51.718;5.324;2022-07-29T08:55:08;101559.31;;;20.21;59.83
57056;BME280;42945;51.718;5.324;2022-07-29T08:57:34;101476.03;;;19.03;63.01
57056;BME280;42945;51.718;5.324;2022-07-29T09:00:02;101460.75;;;19.36;61.97
57056;BME280;42945;51.718;5.324;2022-07-29T09:02:34;101349.94;;;18.79;61.28
57056;BME280;42945;51.718;5.324;2022-07-29T09:05:01;101457.16;;;19.89;59.43
57056;BME280;42945;51.718;5.324;2022-07-29T09:07:27;101439.28;;;19.67;57.13
57056;BME280;42945;51.718;5.324;2022-07-29T09:09:53;101454.38;;;20.10;56.46
57056;BME280;42945;51.718;5.324;2022-07-29T09:12:18;101422.06;;;19.48;58.70
57056;BME280;42945;51.718;5.324;2022-07-29T09:14:43;101409.56;;;19.99;59.07
57056;BME280;42945;51.718;5.324;2022-07-29T09:17:09;101452.19;;;19.94;59.10
57056;BME280;42945;51.718;5.324;2022-07-29T09:19:37;101339.19;;;18.79;58.79
57056;BME280;42945;51.718;5.324;2022-07-29T09:22:07;101456.94;;;20.12;57.24
57056;BME280;42945;51.718;5.324;2022-07-29T09:24:45;101336.47;;;19.42;58.06
57056;BME280;42945;51.718;5.324;2022-07-29T09:27:25;101432.44;;;20.15;57.47
57056;BME280;42945;51.718;5.324;2022-07-29T09:30:06;101351.41;;;19.46;58.75
57056;BME280;42945;51.718;5.324;2022-07-29T09:32:32;101484.50;;;20.25;57.68
57056;BME280;42945;51.718;5.324;2022-07-29T09:35:18;101448.78;;;20.83;55.88
57056;BME280;42945;51.718;5.324;2022-07-29T09:37:45;101477.59;;;20.82;55.62
57056;BME280;42945;51.718;5.324;2022-07-29T09:40:18;101247.81;;;19.62;57.54
57056;BME280;42945;51.718;5.324;2022-07-29T09:42:45;101464.22;;;20.61;55.50
57056;BME280;42945;51.718;5.324;2022-07-29T09:45:11;101320.63;;;20.20;55.13
57056;BME280;42945;51.718;5.324;2022-07-29T09:47:46;115571.00;;;105.26;57.09
57056;BME280;42945;51.718;5.324;2022-07-29T09:50:14;101419.72;;;20.77;56.28
57056;BME280;42945;51.718;5.324;2022-07-29T09:52:47;101455.03;;;20.93;54.69
57056;BME280;42945;51.718;5.324;2022-07-29T09:55:14;101354.44;;;20.63;54.35
57056;BME280;42945;51.718;5.324;2022-07-29T09:57:40;101338.25;;;20.44;54.80
57056;BME280;42945;51.718;5.324;2022-07-29T10:00:23;101438.56;;;21.35;53.58
57056;BME280;42945;51.718;5.324;2022-07-29T10:02:50;101437.84;;;21.33;53.51
57056;BME280;42945;51.718;5.324;2022-07-29T10:05:25;101390.56;;;21.39;53.61
57056;BME280;42945;51.718;5.324;2022-07-29T10:07:54;101473.06;;;21.51;53.26
57056;BME280;42945;51.718;5.324;2022-07-29T10:10:20;101391.41;;;21.39;51.98
57056;BME280;42945;51.718;5.324;2022-07-29T10:12:52;100992.47;;;21.09;53.39
57056;BME280;42945;51.718;5.324;2022-07-29T10:15:21;101482.97;;;21.70;53.01
57056;BME280;42945;51.718;5.324;2022-07-29T10:17:48;101255.78;;;21.37;51.47
57056;BME280;42945;51.718;5.324;2022-07-29T10:20:14;101646.69;;;23.32;52.20
57056;BME280;42945;51.718;5.324;2022-07-29T10:22:40;101466.91;;;22.26;100.00
57056;BME280;42945;51.718;5.324;2022-07-29T10:25:07;101474.94;;;21.98;52.88
57056;BME280;42945;51.718;5.324;2022-07-29T10:27:34;101331.00;;;21.03;52.58
57056;BME280;42945;51.718;5.324;2022-07-29T10:30:00;101450.53;;;21.90;51.01
57056;BME280;42945;51.718;5.324;2022-07-29T10:35:29;101481.91;;;22.66;50.53
57056;BME280;42945;51.718;5.324;2022-07-29T10:38:02;101449.91;;;22.61;51.42
57056;BME280;42945;51.718;5.324;2022-07-29T10:43:29;101459.66;;;22.26;51.44
57056;BME280;42945;51.718;5.324;2022-07-29T10:45:57;101498.81;;;23.31;49.94
57056;BME280;42945;51.718;5.324;2022-07-29T10:48:23;101321.19;;;22.14;50.19
57056;BME280;42945;51.718;5.324;2022-07-29T10:50:57;101408.78;;;23.03;50.00
57056;BME280;42945;51.718;5.324;2022-07-29T10:53:24;101324.19;;;22.11;49.77
57056;BME280;42945;51.718;5.324;2022-07-29T10:55:51;101419.72;;;22.84;49.37
57056;BME280;42945;51.718;5.324;2022-07-29T10:58:21;101386.31;;;23.11;48.90
57056;BME280;42945;51.718;5.324;2022-07-29T11:00:52;101388.97;;;23.21;96.32
57056;BME280;42945;51.718;5.324;2022-07-29T11:03:43;101452.50;;;23.34;50.70
57056;BME280;42945;51.718;5.324;2022-07-29T11:06:09;101437.50;;;23.22;50.34
57056;BME280;42945;51.718;5.324;2022-07-29T11:08:34;101403.88;;;23.51;47.94
57056;BME280;42945;51.718;5.324;2022-07-29T11:16:11;101420.22;;;23.15;49.04
57056;BME280;42945;51.718;5.324;2022-07-29T11:21:42;101390.28;;;23.43;49.81
57056;BME280;42945;51.718;5.324;2022-07-29T11:24:18;101303.38;;;22.75;48.95
57056;BME280;42945;51.718;5.324;2022-07-29T11:26:44;101392.19;;;23.50;50.40
57056;BME280;42945;51.718;5.324;2022-07-29T11:29:19;101398.22;;;23.00;48.94
57056;BME280;42945;51.718;5.324;2022-07-29T11:31:49;101416.31;;;22.99;47.11
57056;BME280;42945;51.718;5.324;2022-07-29T11:34:27;101449.41;;;23.29;49.51
57056;BME280;42945;51.718;5.324;2022-07-29T11:39:33;101390.81;;;23.46;47.50
57056;BME280;42945;51.718;5.324;2022-07-29T11:47:35;101267.56;;;23.68;47.71
57056;BME280;42945;51.718;5.324;2022-07-29T11:50:02;101323.06;;;23.98;46.46
57056;BME280;42945;51.718;5.324;2022-07-29T11:52:36;101299.91;;;23.70;46.83
57056;BME280;42945;51.718;5.324;2022-07-29T11:55:09;101526.81;;;24.79;48.45
57056;BME280;42945;51.718;5.324;2022-07-29T11:57:35;101213.59;;;22.72;47.68
57056;BME280;42945;51.718;5.324;2022-07-29T12:00:02;101385.16;;;23.92;46.60
57056;BME280;42945;51.718;5.324;2022-07-29T12:02:41;101457.63;;;24.75;46.14
57056;BME280;42945;51.718;5.324;2022-07-29T12:05:08;101466.00;;;25.14;46.47
57056;BME280;42945;51.718;5.324;2022-07-29T12:07:35;101152.03;;;24.02;45.72
57056;BME280;42945;51.718;5.324;2022-07-29T12:10:03;101442.03;;;24.69;45.69
57056;BME280;42945;51.718;5.324;2022-07-29T12:12:28;101330.91;;;23.75;46.73
57056;BME280;42945;51.718;5.324;2022-07-29T12:14:54;101358.34;;;23.81;47.96
57056;BME280;42945;51.718;5.324;2022-07-29T12:17:30;101462.34;;;24.22;47.11
57056;BME280;42945;51.718;5.324;2022-07-29T12:19:57;101452.50;;;24.13;47.98
57056;BME280;42945;51.718;5.324;2022-07-29T12:22:34;101344.19;;;23.87;46.87
57056;BME280;42945;51.718;5.324;2022-07-29T12:25:12;101449.53;;;24.91;45.43
57056;BME280;42945;51.718;5.324;2022-07-29T12:27:41;101432.91;;;25.11;43.73
57056;BME280;42945;51.718;5.324;2022-07-29T12:30:10;101431.38;;;25.41;43.04
57056;BME280;42945;51.718;5.324;2022-07-29T12:32:40;101453.03;;;24.67;44.28
57056;BME280;42945;51.718;5.324;2022-07-29T12:35:09;101090.72;;;25.29;43.55
57056;BME280;42945;51.718;5.324;2022-07-29T12:37:36;101396.50;;;24.46;43.02
57056;BME280;42945;51.718;5.324;2022-07-29T12:40:03;101443.59;;;25.12;40.63
57056;BME280;42945;51.718;5.324;2022-07-29T12:42:29;101323.88;;;23.83;43.13
57056;BME280;42945;51.718;5.324;2022-07-29T12:44:55;101321.78;;;24.35;43.09
57056;BME280;42945;51.718;5.324;2022-07-29T12:47:22;101547.66;;;25.79;41.80
57056;BME280;42945;51.718;5.324;2022-07-29T12:49:48;101440.75;;;25.39;42.10
57056;BME280;42945;51.718;5.324;2022-07-29T12:52:28;101372.09;;;25.69;41.41
57056;BME280;42945;51.718;5.324;2022-07-29T12:54:54;101405.06;;;25.58;40.96
57056;BME280;42945;51.718;5.324;2022-07-29T12:57:20;101427.41;;;25.85;100.00
57056;BME280;42945;51.718;5.324;2022-07-29T13:00:08;101418.19;;;25.38;41.74
57056;BME280;42945;51.718;5.324;2022-07-29T13:02:36;101403.19;;;25.67;42.40
57056;BME280;42945;51.718;5.324;2022-07-29T13:05:03;101374.72;;;25.46;42.59
57056;BME280;42945;51.718;5.324;2022-07-29T13:07:31;101363.38;;;25.26;42.89
57056;BME280;42945;51.718;5.324;2022-07-29T13:10:18;101383.47;;;25.73;43.07
57056;BME280;42945;51.718;5.324;2022-07-29T13:13:05;101444.81;;;26.15;41.54
57056;BME280;42945;51.718;5.324;2022-07-29T13:15:31;101376.38;;;26.43;42.05
57056;BME280;42945;51.718;5.324;2022-07-29T13:17:56;101393.88;;;25.12;42.89
57056;BME280;42945;51.718;5.324;2022-07-29T13:20:27;101398.31;;;25.38;43.96
57056;BME280;42945;51.718;5.324;2022-07-29T13:22:56;101385.25;;;25.97;42.18
57056;BME280;42945;51.718;5.324;2022-07-29T13:25:30;101428.94;;;26.35;44.03
57056;BME280;42945;51.718;5.324;2022-07-29T13:27:56;101388.97;;;25.48;41.44